Time;durP1;ratioP1;P1;durP2;ratioP2;P2;SDS_P1;SDS_P2;PMS_P1;PMS_P2;Temp;Humidity;BMP_temperature;BMP_pressure;BME280_temperature;BME280_humidity;BME280_pressure;Samples;Min_cycle;Max_cycle;Signal;HPM_P1;HPM_P2
2023/04/24 00:00:40;;;;;;;10.55;3.03;;;14.70;99.90;;;;;;7408505;19;19955;-81
2023/04/24 00:03:15;;;;;;;10.93;2.33;;;14.70;99.90;;;;;;7408281;19;19907;-81
2023/04/24 00:05:47;;;;;;;8.85;2.35;;;14.60;99.90;;;;;;7429427;19;19926;-81
2023/04/24 00:08:15;;;;;;;9.75;2.47;;;14.60;99.90;;;;;;7428807;19;19922;-82
2023/04/24 00:10:44;;;;;;;7.53;2.08;;;14.60;99.90;;;;;;7427418;19;19930;-81
2023/04/24 00:13:11;;;;;;;8.15;2.30;;;14.60;99.90;;;;;;7408423;19;19918;-81
2023/04/24 00:16:03;;;;;;;9.85;2.65;;;14.60;99.90;;;;;;7411727;19;19918;-82
2023/04/24 00:18:37;;;;;;;9.50;2.95;;;14.70;99.90;;;;;;7381052;19;19972;-82
2023/04/24 00:21:03;;;;;;;8.43;3.10;;;14.70;99.90;;;;;;7408336;19;19917;-82
2023/04/24 00:23:32;;;;;;;10.43;2.67;;;14.70;99.90;;;;;;7430921;19;19981;-81
2023/04/24 00:25:58;;;;;;;10.80;3.30;;;14.70;99.90;;;;;;7429251;19;19914;-82
2023/04/24 00:28:24;;;;;;;11.88;2.60;;;14.80;99.90;;;;;;7425795;19;19918;-82
2023/04/24 00:30:50;;;;;;;7.78;2.03;;;14.80;99.90;;;;;;7428914;19;19930;-82
2023/04/24 00:33:16;;;;;;;7.53;2.50;;;14.80;99.90;;;;;;7354133;19;19914;-81
2023/04/24 00:35:42;;;;;;;7.20;2.22;;;14.70;99.90;;;;;;7407528;19;19972;-83
2023/04/24 00:38:14;;;;;;;11.43;2.30;;;14.80;99.90;;;;;;7427208;19;19919;-82
2023/04/24 00:40:40;;;;;;;7.80;2.20;;;14.90;99.90;;;;;;7429615;19;19918;-81
2023/04/24 00:43:13;;;;;;;8.27;2.45;;;14.90;99.90;;;;;;7406080;19;19910;-84
2023/04/24 00:45:38;;;;;;;10.35;2.53;;;15.00;99.90;;;;;;7409706;19;19922;-83
2023/04/24 00:48:07;;;;;;;7.78;2.40;;;15.00;99.90;;;;;;7427776;19;19911;-82
2023/04/24 00:50:33;;;;;;;8.20;2.00;;;15.00;99.90;;;;;;7428018;19;19921;-82
2023/04/24 00:53:00;;;;;;;9.13;2.03;;;15.00;99.90;;;;;;7428651;19;19926;-81
2023/04/24 00:55:32;;;;;;;9.43;2.10;;;14.90;99.90;;;;;;7426607;19;19921;-82
2023/04/24 00:57:59;;;;;;;7.90;2.00;;;14.90;99.90;;;;;;7427562;19;19946;-82
2023/04/24 01:00:27;;;;;;;6.90;2.00;;;15.00;99.90;;;;;;7426774;19;19925;-83
2023/04/24 01:02:53;;;;;;;9.93;2.53;;;15.00;99.90;;;;;;7407029;19;19911;-81
2023/04/24 01:05:18;;;;;;;7.97;2.40;;;15.00;99.90;;;;;;7430655;19;19938;-82
2023/04/24 01:07:48;;;;;;;6.93;2.30;;;15.00;99.90;;;;;;7435713;19;19907;-82
2023/04/24 01:10:14;;;;;;;7.88;2.63;;;15.10;99.90;;;;;;7432818;19;20274;-83
2023/04/24 01:12:41;;;;;;;;;;;15.20;99.90;;;;;;7417617;19;19938;-81
2023/04/24 01:15:09;;;;;;;8.93;2.65;;;15.30;99.90;;;;;;7410428;19;19923;-82
2023/04/24 01:17:35;;;;;;;10.50;2.50;;;15.30;99.90;;;;;;7435461;19;19919;-81
2023/04/24 01:20:05;;;;;;;8.30;2.13;;;15.20;99.90;;;;;;7413530;19;19926;-81
2023/04/24 01:22:32;;;;;;;8.77;2.22;;;15.30;99.90;;;;;;7432114;19;19914;-83
2023/04/24 01:25:01;;;;;;;10.65;2.80;;;15.30;99.90;;;;;;7435815;19;19922;-82
2023/04/24 01:27:27;;;;;;;5.50;1.52;;;15.30;99.90;;;;;;7436141;19;19915;-82
2023/04/24 01:29:54;;;;;;;5.78;1.73;;;15.20;99.90;;;;;;7434156;19;19914;-82
2023/04/24 01:32:20;;;;;;;11.88;2.22;;;15.20;99.90;;;;;;7410421;19;19922;-81
2023/04/24 01:34:47;;;;;;;5.32;1.55;;;15.20;99.90;;;;;;7432000;19;19918;-81
2023/04/24 01:37:13;;;;;;;8.65;1.90;;;15.20;99.90;;;;;;7431667;19;19914;-82
2023/04/24 01:39:40;;;;;;;5.28;2.08;;;15.30;99.90;;;;;;7434212;19;19943;-83
2023/04/24 01:42:07;;;;;;;4.90;1.45;;;15.20;99.90;;;;;;7409723;19;19914;-83
2023/04/24 01:44:36;;;;;;;;;;;15.20;99.90;;;;;;7436216;19;19937;-82
2023/04/24 01:47:02;;;;;;;5.72;1.52;;;15.20;99.90;;;;;;7433605;19;19915;-82
2023/04/24 01:49:31;;;;;;;4.32;1.40;;;15.20;99.90;;;;;;7433539;19;19922;-82
2023/04/24 01:51:58;;;;;;;5.93;1.50;;;15.20;99.90;;;;;;7433543;19;19986;-82
2023/04/24 01:54:25;;;;;;;6.10;1.38;;;15.30;99.90;;;;;;7409468;19;19918;-82
2023/04/24 01:56:55;;;;;;;5.15;1.52;;;15.30;99.90;;;;;;7431559;19;19915;-82
2023/04/24 01:59:28;;;;;;;7.05;1.70;;;15.30;99.90;;;;;;7429956;19;19922;-82
2023/04/24 02:01:56;;;;;;;6.50;1.63;;;15.20;99.90;;;;;;7431824;19;19914;-83
2023/04/24 02:04:25;;;;;;;5.90;1.90;;;15.20;99.90;;;;;;7432404;19;19938;-82
2023/04/24 02:06:55;;;;;;;5.63;1.70;;;15.20;99.90;;;;;;7433185;19;19911;-82
2023/04/24 02:09:23;;;;;;;5.82;1.60;;;15.20;99.90;;;;;;7403597;19;19974;-81
2023/04/24 02:11:49;;;;;;;6.90;2.10;;;15.10;99.90;;;;;;7409479;19;20243;-81
2023/04/24 02:14:15;;;;;;;6.05;1.50;;;15.00;99.90;;;;;;7431136;19;19915;-81
2023/04/24 02:16:41;;;;;;;4.80;1.40;;;15.00;99.90;;;;;;7408013;19;19915;-82
2023/04/24 02:19:10;;;;;;;4.60;1.35;;;15.00;99.90;;;;;;7406264;19;19911;-81
2023/04/24 02:21:39;;;;;;;5.43;1.20;;;14.90;99.90;;;;;;7432029;19;19926;-82
2023/04/24 02:24:05;;;;;;;3.83;1.30;;;14.80;99.90;;;;;;7431372;19;19911;-83
2023/04/24 02:26:33;;;;;;;4.47;1.40;;;14.80;99.90;;;;;;7413123;19;19966;-82
2023/04/24 02:29:00;;;;;;;6.22;1.60;;;14.70;99.90;;;;;;7431880;19;19915;-82
2023/04/24 02:31:25;;;;;;;;;;;14.70;99.90;;;;;;7423593;19;19923;-82
2023/04/24 02:33:51;;;;;;;5.13;1.15;;;14.70;99.90;;;;;;7426025;19;19915;-81
2023/04/24 02:36:17;;;;;;;6.90;1.20;;;14.70;99.90;;;;;;7422164;19;19919;-82
2023/04/24 02:38:43;;;;;;;6.32;1.30;;;14.70;99.90;;;;;;7426309;19;19910;-82
2023/04/24 02:41:10;;;;;;;4.50;1.30;;;14.70;99.90;;;;;;7390749;19;19922;-83
2023/04/24 02:43:37;;;;;;;5.07;1.38;;;14.60;99.90;;;;;;7425171;19;19914;-82
2023/04/24 02:46:03;;;;;;;6.80;1.38;;;14.60;99.90;;;;;;7389098;19;19915;-81
2023/04/24 02:48:29;;;;;;;5.43;1.33;;;14.60;99.90;;;;;;7426793;19;19925;-82
2023/04/24 02:50:54;;;;;;;7.40;1.17;;;14.60;99.90;;;;;;7423446;19;19922;-82
2023/04/24 02:53:21;;;;;;;5.57;1.77;;;14.60;99.90;;;;;;7423251;19;19930;-82
2023/04/24 02:55:46;;;;;;;5.40;1.23;;;14.60;99.90;;;;;;7421771;19;19917;-81
2023/04/24 02:58:12;;;;;;;4.80;1.10;;;14.60;99.90;;;;;;7422666;19;19930;-82
2023/04/24 03:00:39;;;;;;;4.55;1.42;;;14.50;99.90;;;;;;7422794;19;19938;-82
2023/04/24 03:03:05;;;;;;;4.18;1.20;;;14.50;99.90;;;;;;7421080;19;19931;-82
2023/04/24 03:05:31;;;;;;;5.70;1.20;;;14.60;99.90;;;;;;7425353;19;19925;-82
2023/04/24 03:07:57;;;;;;;3.80;1.17;;;14.60;99.90;;;;;;7426508;19;19919;-81
2023/04/24 03:10:23;;;;;;;3.67;0.90;;;14.70;99.90;;;;;;7424525;19;19922;-82
2023/04/24 03:12:49;;;;;;;3.78;1.20;;;14.70;99.90;;;;;;7426725;19;19982;-82
2023/04/24 03:15:15;;;;;;;4.55;1.30;;;14.60;99.90;;;;;;7421747;19;19942;-82
2023/04/24 03:17:41;;;;;;;4.22;1.02;;;14.60;99.90;;;;;;7425639;19;19932;-81
2023/04/24 03:20:08;;;;;;;4.15;1.15;;;14.60;99.90;;;;;;7423459;19;19915;-81
2023/04/24 03:22:34;;;;;;;4.55;1.30;;;14.70;99.90;;;;;;7424130;19;19907;-81
2023/04/24 03:25:00;;;;;;;4.22;1.08;;;14.60;99.90;;;;;;7424125;19;19930;-81
2023/04/24 03:27:27;;;;;;;3.38;0.90;;;14.70;99.90;;;;;;7423387;19;19922;-82
2023/04/24 03:29:56;;;;;;;5.13;1.13;;;14.70;99.90;;;;;;7424727;19;19928;-82
2023/04/24 03:32:22;;;;;;;4.15;1.50;;;14.70;99.90;;;;;;7422754;19;20270;-82
2023/04/24 03:34:49;;;;;;;3.88;1.00;;;14.70;99.90;;;;;;7423261;19;19919;-82
2023/04/24 03:37:16;;;;;;;;;;;14.60;99.90;;;;;;7425405;19;19922;-81
2023/04/24 03:39:42;;;;;;;3.30;1.20;;;14.70;99.90;;;;;;7392954;19;19914;-82
2023/04/24 03:42:08;;;;;;;5.75;1.45;;;14.70;99.90;;;;;;7423394;19;19919;-81
2023/04/24 03:44:35;;;;;;;5.45;1.50;;;14.80;99.90;;;;;;7425746;19;19919;-82
2023/04/24 03:47:01;;;;;;;5.45;1.50;;;14.80;99.90;;;;;;7422904;19;19927;-82
2023/04/24 03:49:27;;;;;;;5.45;1.52;;;14.80;99.90;;;;;;7422252;19;19934;-82
2023/04/24 03:51:53;;;;;;;4.65;1.45;;;14.90;99.90;;;;;;7422942;19;19918;-82
2023/04/24 03:54:19;;;;;;;5.90;1.50;;;15.00;99.90;;;;;;7424631;19;19919;-82
2023/04/24 03:56:45;;;;;;;5.20;1.80;;;14.90;99.90;;;;;;7426273;19;20240;-81
2023/04/24 03:59:12;;;;;;;4.38;1.33;;;15.00;99.90;;;;;;7391182;19;19954;-82
2023/04/24 04:01:39;;;;;;;4.55;1.58;;;15.00;99.90;;;;;;7423535;19;19974;-81
2023/04/24 04:04:05;;;;;;;6.28;1.80;;;15.10;99.90;;;;;;7421362;19;19918;-82
2023/04/24 04:06:32;;;;;;;5.95;1.50;;;15.10;99.90;;;;;;7423338;19;20748;-81
2023/04/24 04:08:58;;;;;;;5.28;1.77;;;15.10;99.90;;;;;;7423773;19;19921;-82
2023/04/24 04:11:25;;;;;;;7.05;1.70;;;15.10;99.90;;;;;;7420292;19;19911;-82
2023/04/24 04:13:51;;;;;;;4.18;1.75;;;15.20;99.90;;;;;;7423307;19;19918;-83
2023/04/24 04:16:17;;;;;;;7.35;2.08;;;15.20;99.90;;;;;;7388665;19;19926;-83
2023/04/24 04:18:45;;;;;;;7.70;2.40;;;15.30;99.90;;;;;;7419356;19;19926;-83
2023/04/24 04:21:12;;;;;;;10.80;2.50;;;15.30;99.90;;;;;;7421918;19;20038;-82
2023/04/24 04:23:37;;;;;;;7.05;2.45;;;15.20;99.90;;;;;;7421024;19;19998;-83
2023/04/24 04:26:04;;;;;;;6.35;2.33;;;15.30;99.90;;;;;;7421566;19;19929;-82
2023/04/24 04:28:33;;;;;;;8.45;2.42;;;15.30;99.90;;;;;;7422944;19;19918;-81
2023/04/24 04:30:59;;;;;;;11.07;3.22;;;15.30;99.90;;;;;;7423697;19;19914;-82
2023/04/24 04:33:25;;;;;;;7.30;2.80;;;15.20;99.90;;;;;;7421482;19;19921;-82
2023/04/24 04:35:52;;;;;;;11.02;3.20;;;15.20;99.90;;;;;;7420934;19;19950;-82
2023/04/24 04:38:19;;;;;;;9.07;2.92;;;15.20;99.90;;;;;;7419636;19;19958;-82
2023/04/24 04:40:45;;;;;;;10.65;3.35;;;15.20;99.90;;;;;;7421490;19;19914;-81
2023/04/24 04:43:13;;;;;;;12.10;3.35;;;15.20;99.90;;;;;;7420325;19;19910;-81
2023/04/24 04:45:40;;;;;;;7.45;3.22;;;15.20;99.90;;;;;;7423010;19;19914;-81
2023/04/24 04:48:08;;;;;;;10.50;3.50;;;15.10;99.90;;;;;;7418741;19;19919;-82
2023/04/24 04:50:35;;;;;;;7.55;4.47;;;15.10;99.90;;;;;;7421200;19;20256;-83
2023/04/24 04:53:01;;;;;;;9.65;3.47;;;15.10;99.90;;;;;;7422388;19;19919;-83
2023/04/24 04:55:27;;;;;;;8.80;3.55;;;15.10;99.90;;;;;;7420874;19;19914;-83
2023/04/24 04:57:53;;;;;;;9.95;3.05;;;15.20;99.90;;;;;;7399723;19;19993;-83
2023/04/24 05:00:19;;;;;;;7.97;3.03;;;15.20;99.90;;;;;;7417394;19;19924;-82
2023/04/24 05:02:45;;;;;;;11.20;3.40;;;15.20;99.90;;;;;;7424444;19;19918;-82
2023/04/24 05:05:10;;;;;;;8.65;3.72;;;15.10;99.90;;;;;;7420614;19;19934;-82
2023/04/24 05:07:36;;;;;;;7.72;3.05;;;15.20;99.90;;;;;;7421887;19;19923;-83
2023/04/24 05:10:04;;;;;;;11.57;3.85;;;15.20;99.90;;;;;;7422998;19;20366;-82
2023/04/24 05:12:30;;;;;;;10.57;3.60;;;15.20;99.90;;;;;;7421323;19;19932;-83
2023/04/24 05:14:56;;;;;;;10.80;3.75;;;15.20;99.90;;;;;;7421228;19;19919;-83
2023/04/24 05:17:21;;;;;;;10.18;4.07;;;15.30;99.90;;;;;;7419936;19;25109;-82
2023/04/24 05:19:48;;;;;;;12.50;3.92;;;15.30;99.90;;;;;;7422660;19;19950;-82
2023/04/24 05:22:13;;;;;;;8.23;3.72;;;15.30;99.90;;;;;;7402135;19;19914;-82
2023/04/24 05:24:39;;;;;;;8.07;3.72;;;15.40;99.90;;;;;;7422275;19;20034;-83
2023/04/24 05:27:05;;;;;;;9.50;3.65;;;15.40;99.90;;;;;;7419499;19;19978;-84
2023/04/24 05:29:32;;;;;;;11.55;3.47;;;15.40;99.90;;;;;;7420149;19;19911;-82
2023/04/24 05:31:59;;;;;;;7.57;3.55;;;15.40;99.90;;;;;;7421244;19;19925;-82
2023/04/24 05:34:26;;;;;;;10.27;4.25;;;15.30;99.90;;;;;;7418253;19;19931;-82
2023/04/24 05:36:53;;;;;;;11.63;4.82;;;15.30;99.90;;;;;;7421652;19;19915;-82
2023/04/24 05:39:19;;;;;;;11.05;3.72;;;15.20;99.90;;;;;;7418319;19;19921;-81
2023/04/24 05:41:45;;;;;;;10.35;4.60;;;15.20;99.90;;;;;;7418530;19;19915;-81
2023/04/24 05:44:11;;;;;;;7.20;3.17;;;15.20;99.90;;;;;;7413750;19;19915;-80
2023/04/24 05:46:38;;;;;;;7.63;3.70;;;15.20;99.90;;;;;;7414725;19;19915;-82
2023/04/24 05:49:04;;;;;;;11.90;4.35;;;15.20;99.90;;;;;;7394815;19;19917;-80
2023/04/24 05:51:31;;;;;;;7.85;3.33;;;15.30;99.90;;;;;;7424056;19;19918;-81
2023/04/24 05:53:58;;;;;;;9.52;4.07;;;15.30;99.90;;;;;;7399696;19;20011;-81
2023/04/24 05:56:24;;;;;;;10.10;3.53;;;15.30;99.90;;;;;;7420185;19;19927;-82
2023/04/24 05:58:50;;;;;;;11.40;3.65;;;15.30;99.90;;;;;;7403651;19;20366;-82
2023/04/24 06:01:16;;;;;;;9.13;4.47;;;15.40;99.90;;;;;;7422194;19;19958;-81
2023/04/24 06:03:42;;;;;;;8.63;4.20;;;15.40;99.90;;;;;;7424623;19;19911;-80
2023/04/24 06:06:08;;;;;;;10.80;4.43;;;15.50;99.90;;;;;;7423490;19;19938;-80
2023/04/24 06:08:37;;;;;;;11.63;4.20;;;15.50;99.90;;;;;;7425203;19;19938;-81
2023/04/24 06:11:04;;;;;;;12.50;3.97;;;15.50;99.90;;;;;;7421818;19;19915;-81
2023/04/24 06:13:30;;;;;;;10.75;4.75;;;15.50;99.90;;;;;;7422980;19;20254;-80
2023/04/24 06:15:56;;;;;;;9.35;4.10;;;15.50;99.90;;;;;;7425093;19;19914;-80
2023/04/24 06:18:21;;;;;;;10.93;4.30;;;15.60;99.90;;;;;;7425043;19;20354;-82
2023/04/24 06:20:48;;;;;;;10.82;4.10;;;15.60;99.90;;;;;;7405867;19;19918;-81
2023/04/24 06:23:14;;;;;;;11.30;5.28;;;15.70;99.90;;;;;;7351313;19;20348;-81
2023/04/24 06:25:40;;;;;;;;;;;15.80;99.90;;;;;;7428312;19;19915;-82
2023/04/24 06:28:07;;;;;;;15.23;4.22;;;15.90;99.90;;;;;;7426170;19;19910;-82
2023/04/24 06:30:33;;;;;;;9.30;4.28;;;15.90;99.90;;;;;;7424105;19;19915;-81
2023/04/24 06:32:59;;;;;;;9.65;4.18;;;16.00;99.90;;;;;;7425350;19;20058;-80
2023/04/24 06:35:25;;;;;;;11.20;4.13;;;16.10;99.90;;;;;;7421080;19;19911;-81
2023/04/24 06:37:51;;;;;;;13.02;4.32;;;16.20;99.90;;;;;;7422729;19;19918;-80
2023/04/24 06:40:18;;;;;;;14.10;5.88;;;16.20;99.90;;;;;;7419427;19;19918;-81
2023/04/24 06:42:44;;;;;;;12.32;4.75;;;16.20;99.90;;;;;;7423674;19;19946;-81
2023/04/24 06:45:11;;;;;;;14.43;5.03;;;16.30;99.90;;;;;;7423087;19;19919;-82
2023/04/24 06:47:37;;;;;;;16.00;5.05;;;16.30;99.90;;;;;;7424755;19;19915;-81
2023/04/24 06:50:04;;;;;;;12.05;5.15;;;16.20;99.90;;;;;;7422332;19;19927;-81
2023/04/24 06:52:33;;;;;;;9.73;4.20;;;16.20;99.90;;;;;;7423908;19;19922;-83
2023/04/24 06:55:05;;;;;;;14.32;5.20;;;16.30;99.90;;;;;;7423092;19;19924;-82
2023/04/24 06:57:31;;;;;;;;;;;16.30;99.90;;;;;;7373568;19;19914;-82
2023/04/24 06:59:57;;;;;;;11.35;5.32;;;16.20;99.90;;;;;;7403142;19;19982;-80
2023/04/24 07:02:23;;;;;;;11.43;6.03;;;16.20;99.90;;;;;;7422507;19;19914;-80
2023/04/24 07:04:49;;;;;;;15.65;5.97;;;16.30;99.90;;;;;;7427247;19;19918;-81
2023/04/24 07:07:16;;;;;;;12.90;4.88;;;16.40;99.90;;;;;;7420772;19;19914;-82
2023/04/24 07:09:42;;;;;;;9.10;5.22;;;16.50;99.90;;;;;;7426650;19;19928;-80
2023/04/24 07:12:10;;;;;;;13.55;5.28;;;16.60;99.90;;;;;;7421315;19;19906;-80
2023/04/24 07:14:36;;;;;;;13.95;5.88;;;16.60;99.90;;;;;;7424432;19;19930;-80
2023/04/24 07:17:06;;;;;;;;;;;16.60;99.90;;;;;;7428948;19;19918;-81
2023/04/24 07:19:35;;;;;;;11.95;5.50;;;16.60;99.90;;;;;;7421307;19;19911;-80
2023/04/24 07:22:01;;;;;;;11.07;5.18;;;16.70;99.90;;;;;;7424937;19;19918;-81
2023/04/24 07:24:27;;;;;;;13.40;5.03;;;16.80;99.90;;;;;;7421631;19;19915;-81
2023/04/24 07:26:55;;;;;;;11.80;4.68;;;17.00;99.90;;;;;;7422424;19;19903;-80
2023/04/24 07:29:21;;;;;;;9.45;4.53;;;17.20;99.90;;;;;;7418946;19;19918;-82
2023/04/24 07:31:47;;;;;;;13.43;5.25;;;17.20;99.90;;;;;;7391063;19;19915;-81
2023/04/24 07:34:14;;;;;;;;;;;17.40;99.90;;;;;;7426899;19;19921;-80
2023/04/24 07:36:41;;;;;;;13.27;5.72;;;17.40;99.90;;;;;;7424657;19;19914;-80
2023/04/24 07:39:08;;;;;;;12.50;5.47;;;17.50;99.90;;;;;;7420709;19;20014;-81
2023/04/24 07:41:34;;;;;;;10.52;6.00;;;17.60;99.60;;;;;;7421979;19;19919;-80
2023/04/24 07:44:01;;;;;;;15.27;6.40;;;17.70;99.60;;;;;;7419471;19;19925;-81
2023/04/24 07:46:29;;;;;;;13.07;5.80;;;17.90;99.70;;;;;;7422960;19;19918;-81
2023/04/24 07:48:55;;;;;;;14.32;5.50;;;18.00;99.00;;;;;;7422516;19;19929;-81
2023/04/24 07:51:22;;;;;;;14.18;6.22;;;18.10;98.60;;;;;;7421713;19;19926;-80
2023/04/24 07:53:48;;;;;;;12.40;5.93;;;17.90;98.60;;;;;;7422427;19;19939;-81
2023/04/24 07:56:14;;;;;;;18.10;6.88;;;17.90;99.30;;;;;;7421577;19;19948;-80
2023/04/24 07:58:40;;;;;;;18.95;7.22;;;18.10;99.00;;;;;;7423734;19;19914;-81
2023/04/24 08:01:07;;;;;;;15.20;7.63;;;18.20;99.00;;;;;;7423401;19;19926;-81
2023/04/24 08:03:34;;;;;;;14.07;6.82;;;18.30;98.80;;;;;;7421986;19;19922;-81
2023/04/24 08:06:00;;;;;;;13.77;6.72;;;18.40;98.50;;;;;;7422843;19;19922;-82
2023/04/24 08:08:26;;;;;;;15.88;6.70;;;18.40;98.60;;;;;;7420954;19;19919;-82
2023/04/24 08:10:52;;;;;;;14.35;5.80;;;18.40;98.80;;;;;;7423276;19;19929;-81
2023/04/24 08:13:17;;;;;;;15.60;6.20;;;18.60;98.70;;;;;;7420784;19;19911;-82
2023/04/24 08:15:43;;;;;;;11.80;5.43;;;18.80;98.40;;;;;;7421171;19;19927;-81
2023/04/24 08:18:11;;;;;;;14.88;6.20;;;19.20;98.00;;;;;;7423528;19;19919;-81
2023/04/24 08:20:37;;;;;;;15.40;6.25;;;19.50;96.90;;;;;;7426483;19;19931;-82
2023/04/24 08:23:03;;;;;;;14.77;5.82;;;19.80;96.30;;;;;;7422993;19;19918;-82
2023/04/24 08:25:29;;;;;;;15.13;6.60;;;19.70;96.00;;;;;;7424192;19;19974;-81
2023/04/24 08:27:55;;;;;;;14.45;6.10;;;19.20;96.40;;;;;;7423684;19;19986;-79
2023/04/24 08:30:21;;;;;;;14.90;6.93;;;18.90;97.40;;;;;;7420142;19;20331;-82
2023/04/24 08:32:47;;;;;;;14.60;7.07;;;18.60;97.80;;;;;;7421310;19;19935;-81
2023/04/24 08:35:14;;;;;;;14.02;7.13;;;18.70;98.50;;;;;;7419148;19;19926;-81
2023/04/24 08:37:40;;;;;;;13.98;6.25;;;19.80;97.60;;;;;;7422202;19;19910;-81
2023/04/24 08:40:20;;;;;;;16.55;5.63;;;21.10;93.50;;;;;;7385416;19;19917;-80
2023/04/24 08:42:45;;;;;;;13.35;6.85;;;21.80;92.60;;;;;;7403820;19;20641;-73
2023/04/24 08:45:12;;;;;;;16.92;6.55;;;22.40;90.60;;;;;;7400218;19;20033;-74
2023/04/24 08:47:42;;;;;;;13.07;5.63;;;21.70;91.80;;;;;;7401985;19;19914;-75
2023/04/24 08:50:09;;;;;;;11.65;4.28;;;22.60;89.00;;;;;;7400105;19;19943;-74
2023/04/24 08:52:35;;;;;;;10.65;5.05;;;23.60;84.30;;;;;;7405182;19;19954;-74
2023/04/24 08:55:02;;;;;;;10.30;4.10;;;24.30;82.30;;;;;;7402871;19;19961;-73
2023/04/24 08:57:29;;;;;;;11.02;5.03;;;25.10;80.70;;;;;;7400630;19;19922;-73
2023/04/24 08:59:56;;;;;;;10.88;5.10;;;25.30;76.80;;;;;;7392437;19;20378;-74
2023/04/24 09:02:24;;;;;;;11.07;5.32;;;24.80;78.20;;;;;;7392410;19;20441;-74
2023/04/24 09:04:50;;;;;;;12.13;5.15;;;25.00;77.00;;;;;;7398386;19;19918;-74
2023/04/24 09:07:17;;;;;;;13.68;6.18;;;25.80;76.00;;;;;;7398654;19;19918;-74
2023/04/24 09:09:48;;;;;;;13.98;5.25;;;24.90;76.30;;;;;;7390500;19;19911;-73
2023/04/24 09:12:15;;;;;;;14.57;5.15;;;24.00;78.90;;;;;;7392386;19;19915;-73
2023/04/24 09:14:44;;;;;;;11.50;5.18;;;23.40;81.60;;;;;;7390924;19;19928;-73
2023/04/24 09:17:11;;;;;;;11.57;5.72;;;24.30;78.40;;;;;;7387404;19;19919;-73
2023/04/24 09:19:36;;;;;;;;;;;24.60;79.20;;;;;;7397000;19;19914;-73
2023/04/24 09:22:06;;;;;;;11.15;5.28;;;25.30;77.70;;;;;;7391678;19;19922;-73
2023/04/24 09:24:33;;;;;;;11.98;5.53;;;25.40;76.60;;;;;;7385362;19;19942;-72
2023/04/24 09:27:03;;;;;;;9.93;5.40;;;25.50;76.10;;;;;;7398008;19;19938;-72
2023/04/24 09:29:29;;;;;;;13.70;5.65;;;25.20;76.70;;;;;;7394771;19;19922;-73
2023/04/24 09:31:55;;;;;;;12.23;5.45;;;25.60;75.60;;;;;;7397789;19;19942;-73
2023/04/24 09:34:26;;;;;;;11.98;4.90;;;26.50;74.70;;;;;;7398181;19;19934;-73
2023/04/24 09:36:53;;;;;;;17.98;10.23;;;26.10;73.40;;;;;;7396643;19;19917;-73
2023/04/24 09:39:22;;;;;;;8.43;4.22;;;24.60;76.80;;;;;;7395656;19;20318;-73
2023/04/24 09:41:56;;;;;;;10.68;4.65;;;23.90;79.00;;;;;;7397542;19;19915;-72
2023/04/24 09:44:24;;;;;;;13.55;5.30;;;24.60;79.00;;;;;;7401934;19;20431;-73
2023/04/24 09:46:59;;;;;;;11.75;5.47;;;24.00;79.20;;;;;;7397008;19;19926;-73
2023/04/24 09:49:30;;;;;;;12.60;5.10;;;24.10;78.90;;;;;;7394175;19;20718;-73
2023/04/24 09:52:07;;;;;;;11.10;4.88;;;25.00;78.10;;;;;;7396558;19;19918;-72
2023/04/24 09:54:33;;;;;;;11.43;5.13;;;25.30;75.90;;;;;;7395964;19;19910;-71
2023/04/24 09:57:00;;;;;;;10.93;4.55;;;25.10;76.30;;;;;;7399176;19;19914;-73
2023/04/24 09:59:26;;;;;;;14.68;5.22;;;25.30;75.80;;;;;;7398654;19;19911;-73
2023/04/24 10:01:52;;;;;;;11.98;5.35;;;25.30;76.20;;;;;;7401180;19;19918;-72
2023/04/24 10:04:24;;;;;;;14.68;5.40;;;24.30;77.40;;;;;;7401157;19;19915;-72
2023/04/24 10:06:51;;;;;;;14.40;5.65;;;23.70;79.90;;;;;;7401217;19;19939;-73
2023/04/24 10:09:19;;;;;;;13.02;5.00;;;24.50;79.80;;;;;;7388678;19;19922;-70
2023/04/24 10:11:47;;;;;;;10.70;4.75;;;24.90;78.20;;;;;;7389061;19;19918;-71
2023/04/24 10:14:15;;;;;;;13.38;4.80;;;25.50;76.90;;;;;;7382733;19;19962;-72
2023/04/24 10:16:42;;;;;;;11.15;4.35;;;25.70;75.30;;;;;;7387916;19;19952;-72
2023/04/24 10:19:08;;;;;;;10.25;4.32;;;25.10;76.30;;;;;;7375756;19;19919;-72
2023/04/24 10:21:35;;;;;;;10.15;5.05;;;23.10;80.50;;;;;;7398535;19;19971;-73
2023/04/24 10:24:03;;;;;;;10.63;5.20;;;22.50;83.30;;;;;;7398922;19;19926;-74
2023/04/24 10:26:29;;;;;;;15.63;5.80;;;21.40;86.10;;;;;;7393449;19;19926;-73
2023/04/24 10:28:58;;;;;;;12.40;6.28;;;21.60;86.80;;;;;;7400593;19;20252;-72
2023/04/24 10:31:25;;;;;;;10.90;5.05;;;20.60;88.50;;;;;;7392601;19;20404;-72
2023/04/24 10:33:53;;;;;;;12.45;5.00;;;20.60;90.20;;;;;;7393961;19;19918;-72
2023/04/24 10:36:22;;;;;;;14.40;4.82;;;20.20;91.20;;;;;;7389862;19;19914;-72
2023/04/24 10:38:50;;;;;;;12.30;4.88;;;20.40;90.80;;;;;;7401721;19;19918;-72
2023/04/24 10:41:23;;;;;;;13.80;4.90;;;21.00;90.80;;;;;;7393525;19;19918;-72
2023/04/24 10:44:03;;;;;;;11.70;4.65;;;21.40;90.30;;;;;;7381855;19;19923;-72
2023/04/24 10:46:30;;;;;;;8.40;4.45;;;21.60;89.00;;;;;;7397429;19;19919;-72
2023/04/24 10:48:58;;;;;;;12.88;4.80;;;22.40;86.00;;;;;;7393223;19;20263;-76
2023/04/24 10:51:25;;;;;;;14.45;4.82;;;22.50;84.80;;;;;;7402033;19;19938;-76
2023/04/24 10:53:51;;;;;;;10.93;5.18;;;21.70;87.20;;;;;;7407837;19;19921;-76
2023/04/24 10:56:18;;;;;;;11.80;4.30;;;21.10;88.60;;;;;;7361367;19;19919;-76
2023/04/24 10:58:51;;;;;;;8.10;4.07;;;21.60;88.00;;;;;;7398573;19;19919;-76
2023/04/24 11:01:30;;;;;;;12.43;4.78;;;22.00;86.40;;;;;;7382250;19;19946;-76
2023/04/24 11:04:02;;;;;;;12.52;4.10;;;21.70;88.00;;;;;;7399285;19;19919;-76
2023/04/24 11:06:40;;;;;;;11.60;4.25;;;22.20;87.00;;;;;;7396872;19;19919;-75
2023/04/24 11:09:12;;;;;;;9.95;5.28;;;22.40;87.00;;;;;;7395846;19;19928;-77
2023/04/24 11:11:45;;;;;;;12.50;5.13;;;22.10;86.00;;;;;;7397490;19;19919;-75
2023/04/24 11:14:13;;;;;;;10.95;4.88;;;21.00;89.80;;;;;;7397759;19;20298;-76
2023/04/24 11:16:52;;;;;;;11.57;4.68;;;22.00;88.40;;;;;;7386228;19;19914;-77
2023/04/24 11:19:23;;;;;;;;;;;21.20;90.00;;;;;;7400153;19;19919;-77
2023/04/24 11:22:03;;;;;;;14.15;5.30;;;21.60;90.00;;;;;;7399037;19;19941;-76
2023/04/24 11:24:32;;;;;;;14.25;4.93;;;21.60;89.40;;;;;;7395317;19;19919;-76
2023/04/24 11:27:04;;;;;;;12.57;4.72;;;22.40;88.00;;;;;;7397859;19;19921;-77
2023/04/24 11:30:00;;;;;;;16.20;5.25;;;21.80;88.50;;;;;;7399761;19;20500;-77
2023/04/24 11:32:39;;;;;;;12.65;4.57;;;21.60;90.10;;;;;;7387038;19;19946;-76
2023/04/24 11:35:07;;;;;;;11.85;4.53;;;22.30;88.60;;;;;;7388330;19;19930;-76
2023/04/24 11:37:38;;;;;;;13.88;6.00;;;22.60;86.50;;;;;;7393364;19;20478;-77
2023/04/24 11:40:06;;;;;;;10.98;4.53;;;23.00;86.20;;;;;;7388271;19;19935;-76
2023/04/24 11:42:36;;;;;;;11.70;5.57;;;22.10;88.00;;;;;;7396097;19;20381;-76
2023/04/24 11:45:07;;;;;;;13.50;5.13;;;21.90;89.80;;;;;;7390515;19;20036;-76
2023/04/24 11:47:33;;;;;;;11.40;4.78;;;22.80;88.00;;;;;;7393916;19;19927;-77
2023/04/24 11:50:00;;;;;;;12.77;5.47;;;21.60;90.40;;;;;;7357787;19;19923;-77
2023/04/24 11:52:27;;;;;;;9.20;4.20;;;21.90;90.00;;;;;;7397219;19;19914;-77
2023/04/24 11:54:53;;;;;;;13.93;4.20;;;22.30;89.00;;;;;;7401401;19;19914;-77
2023/04/24 11:57:26;;;;;;;10.65;4.57;;;22.80;87.40;;;;;;7391500;19;19923;-76
2023/04/24 11:59:51;;;;;;;10.80;5.85;;;22.10;89.00;;;;;;7394256;19;20303;-77
2023/04/24 12:02:25;;;;;;;12.75;4.65;;;21.90;90.30;;;;;;7389635;19;19923;-76
2023/04/24 12:04:52;;;;;;;9.18;3.30;;;22.40;88.50;;;;;;7395050;19;19985;-77
2023/04/24 12:07:18;;;;;;;14.10;4.85;;;22.10;89.40;;;;;;7350070;19;19935;-76
2023/04/24 12:09:49;;;;;;;14.23;4.88;;;22.60;89.00;;;;;;7396768;19;20692;-76
2023/04/24 12:12:16;;;;;;;13.23;4.82;;;22.20;90.00;;;;;;7388542;19;19987;-78
2023/04/24 12:15:06;;;;;;;10.35;4.35;;;22.30;90.10;;;;;;7396832;19;19978;-76
2023/04/24 12:17:34;;;;;;;10.88;4.65;;;22.20;90.50;;;;;;7393017;19;19922;-76
2023/04/24 12:20:02;;;;;;;12.48;5.28;;;22.70;87.80;;;;;;7398019;19;20317;-76
2023/04/24 12:22:43;;;;;;;13.13;5.20;;;22.40;88.00;;;;;;7396329;19;20336;-76
2023/04/24 12:25:10;;;;;;;9.65;4.00;;;22.40;90.70;;;;;;7359961;19;19914;-76
2023/04/24 12:27:36;;;;;;;10.75;4.38;;;21.90;89.10;;;;;;7394913;19;19965;-79
2023/04/24 12:30:04;;;;;;;11.02;5.10;;;22.20;88.60;;;;;;7403610;19;19915;-76
2023/04/24 12:32:31;;;;;;;10.73;4.07;;;22.60;87.10;;;;;;7391502;19;20339;-77
2023/04/24 12:34:57;;;;;;;11.10;4.53;;;24.30;86.10;;;;;;7395949;19;19939;-77
2023/04/24 12:37:32;;;;;;;11.90;4.28;;;24.70;83.60;;;;;;7375162;19;19934;-77
2023/04/24 12:40:10;;;;;;;10.30;5.22;;;24.50;82.70;;;;;;7392622;19;19935;-77
2023/04/24 12:42:42;;;;;;;11.50;4.45;;;23.50;85.30;;;;;;7393041;19;19922;-77
2023/04/24 12:45:08;;;;;;;11.57;4.63;;;22.50;89.20;;;;;;7391866;19;22020;-76